Harlowton, Montana
Current Conditions -  °F | °C
As of 10:54 AM on Saturday 20 Dec 2014 (Local Time) from KLWT Reporting Station
Clear Clear  
Wind Chill: 33°   Ceiling: Unl
Heat Index: 39°   Visibility: 10mi
Dew Point: 20°   Wind: 9mph
Humidity: 46%   Direction: 220°SW
Pressure: 29.86"   Gusts: NA
Location:  46.44°N, 109.83°W
Report Text: KLWT 201754Z AUTO 22008KT 10SM CLR 04/M07 A2986 RMK AO2 SLP125 T00391067 10039 21017 56003
Loading
Personal Weather Stations






























Interactive Weather Map New forecast layout! Learn more

10-Day Weather Forecast

Advertisements
Track Severe Weather on mobile